Time;durP1;ratioP1;P1;durP2;ratioP2;P2;SDS_P1;SDS_P2;PMS_P1;PMS_P2;Temp;Humidity;BMP_temperature;BMP_pressure;BME280_temperature;BME280_humidity;BME280_pressure;Samples;Min_cycle;Max_cycle;Signal;HPM_P1;HPM_P2
2021/09/24 00:01:21;;;;;;;8.90;6.80;;;;;;;8.10;83.26;98713.78;1753490;82;20999;-68
2021/09/24 00:03:47;;;;;;;8.60;6.62;;;;;;;8.14;83.28;98699.94;1749744;82;21533;-67
2021/09/24 00:06:14;;;;;;;8.78;6.85;;;;;;;8.18;83.30;98698.30;1734578;80;21102;-68
2021/09/24 00:08:42;;;;;;;10.13;7.10;;;;;;;8.23;83.31;98695.53;1749175;82;21014;-67
2021/09/24 00:11:09;;;;;;;9.03;6.33;;;;;;;8.21;83.44;98703.15;1752962;82;21498;-67
2021/09/24 00:13:36;;;;;;;12.37;7.42;;;;;;;8.23;83.43;98691.47;1745597;82;21489;-67
2021/09/24 00:16:04;;;;;;;8.23;6.20;;;;;;;8.28;83.42;98691.98;1751155;82;21066;-67
2021/09/24 00:18:30;;;;;;;;;;;;;;;8.33;83.34;98686.00;1744785;82;21114;-67
2021/09/24 00:20:58;;;;;;;9.03;6.92;;;;;;;8.35;83.28;98685.19;1731885;82;20113;-67
2021/09/24 00:23:26;;;;;;;8.23;6.42;;;;;;;8.32;83.37;98670.84;1723713;82;21055;-67
2021/09/24 00:25:53;;;;;;;9.73;6.60;;;;;;;8.33;83.46;98658.87;1725307;82;21078;-67
2021/09/24 00:28:19;;;;;;;10.15;6.92;;;;;;;8.37;83.47;98658.58;1740338;82;21145;-68
2021/09/24 00:30:47;;;;;;;9.58;6.90;;;;;;;8.43;83.44;98649.88;1753252;82;21063;-69
2021/09/24 00:33:14;;;;;;;8.03;6.55;;;;;;;8.46;83.35;98649.30;1730149;82;21105;-68
2021/09/24 00:35:40;;;;;;;9.18;7.08;;;;;;;8.49;83.31;98645.48;1725754;82;21605;-67
2021/09/24 00:38:06;;;;;;;10.58;7.28;;;;;;;8.46;83.33;98640.62;1723558;82;21078;-66
2021/09/24 00:40:34;;;;;;;10.15;7.25;;;;;;;8.43;83.45;98645.23;1738697;82;21581;-67
2021/09/24 00:43:02;;;;;;;9.48;7.37;;;;;;;8.47;83.40;98638.16;1737472;82;21850;-67
2021/09/24 00:45:28;;;;;;;8.85;6.75;;;;;;;8.50;83.45;98633.52;1724744;82;21548;-68
2021/09/24 00:47:56;;;;;;;8.55;6.67;;;;;;;8.54;83.45;98623.47;1748743;82;21034;-68
2021/09/24 00:50:24;;;;;;;12.18;7.15;;;;;;;8.57;83.43;98614.77;1753058;82;21023;-67
2021/09/24 00:52:53;;;;;;;11.55;7.20;;;;;;;8.60;83.45;98619.61;1723983;82;21489;-67
2021/09/24 00:55:21;;;;;;;10.08;7.03;;;;;;;8.64;83.47;98616.05;1723209;83;21035;-67
2021/09/24 00:57:48;;;;;;;9.63;7.55;;;;;;;8.65;83.42;98613.58;1725234;82;21015;-67
2021/09/24 01:00:15;;;;;;;10.08;7.37;;;;;;;8.68;83.43;98605.44;1711899;82;21490;-68
2021/09/24 01:02:42;;;;;;;11.08;7.50;;;;;;;8.69;83.44;98598.89;1719509;82;21000;-68
2021/09/24 01:05:09;;;;;;;10.08;7.80;;;;;;;8.65;83.63;98597.30;1739172;82;21531;-68
2021/09/24 01:07:38;;;;;;;11.65;7.67;;;;;;;8.66;83.75;98596.21;1736758;82;21439;-67
2021/09/24 01:10:08;;;;;;;11.30;7.72;;;;;;;8.69;83.66;98598.34;1714615;82;21526;-68
2021/09/24 01:12:34;;;;;;;10.82;7.08;;;;;;;8.70;83.66;98594.55;1739271;82;20960;-67
2021/09/24 01:15:08;;;;;;;10.58;7.55;;;;;;;8.72;83.66;98586.92;1739292;82;21032;-67
2021/09/24 01:17:36;;;;;;;11.35;7.60;;;;;;;8.74;83.67;98582.03;1737317;82;20952;-67
2021/09/24 01:20:06;;;;;;;9.35;7.17;;;;;;;8.75;83.69;98579.55;1738617;82;21555;-67
2021/09/24 01:22:33;;;;;;;9.50;7.37;;;;;;;8.75;83.66;98570.06;1734014;82;20944;-67
2021/09/24 01:25:00;;;;;;;11.75;7.72;;;;;;;8.76;83.71;98560.02;1717626;82;21067;-66
2021/09/24 01:27:27;;;;;;;10.63;7.10;;;;;;;8.77;83.75;98558.94;1711910;82;20982;-67
2021/09/24 01:29:56;;;;;;;10.55;8.00;;;;;;;8.75;83.82;98556.49;1710417;82;21118;-67
2021/09/24 01:32:23;;;;;;;8.35;6.78;;;;;;;8.71;83.97;98541.91;1709812;84;21036;-67
2021/09/24 01:34:50;;;;;;;9.05;7.17;;;;;;;8.73;83.97;98538.35;1709777;82;21107;-67
2021/09/24 01:37:18;;;;;;;11.70;6.65;;;;;;;8.76;84.03;98543.73;1712009;82;21048;-67
2021/09/24 01:39:44;;;;;;;;;;;;;;;8.76;84.07;98530.98;1715046;82;21051;-66
2021/09/24 01:42:10;;;;;;;10.23;7.30;;;;;;;8.78;84.12;98528.81;1709851;84;20406;-67
2021/09/24 01:44:37;;;;;;;9.75;7.37;;;;;;;8.76;84.29;98520.67;1738525;82;21064;-67
2021/09/24 01:47:04;;;;;;;11.35;7.28;;;;;;;8.77;84.35;98512.80;1739207;82;21487;-68
2021/09/24 01:49:30;;;;;;;;;;;;;;;8.80;84.35;98517.11;1720322;82;21071;-68
2021/09/24 01:51:57;;;;;;;10.60;7.15;;;;;;;8.83;84.35;98515.16;1710157;82;20156;-67
2021/09/24 01:54:24;;;;;;;9.40;6.72;;;;;;;8.79;84.50;98510.05;1709627;84;21103;-67
2021/09/24 01:56:52;;;;;;;10.55;7.25;;;;;;;8.80;84.59;98510.32;1721254;82;21003;-69
2021/09/24 01:59:19;;;;;;;10.48;7.20;;;;;;;8.84;84.63;98498.34;1738271;81;21016;-68
2021/09/24 02:01:45;;;;;;;10.70;8.35;;;;;;;8.87;84.63;98490.97;1747215;82;21058;-68
2021/09/24 02:04:12;;;;;;;10.00;7.80;;;;;;;8.90;84.63;98489.84;1737531;82;21506;-68
2021/09/24 02:06:39;;;;;;;9.73;7.05;;;;;;;8.91;84.59;98476.53;1717395;83;21047;-68
2021/09/24 02:09:06;;;;;;;8.60;7.53;;;;;;;8.91;84.65;98473.82;1734633;82;20976;-68
2021/09/24 02:11:33;;;;;;;10.70;7.90;;;;;;;8.95;84.68;98474.05;1719838;82;21054;-68
2021/09/24 02:14:00;;;;;;;11.03;8.33;;;;;;;8.95;84.64;98464.55;1717944;82;21058;-67
2021/09/24 02:16:27;;;;;;;11.75;7.97;;;;;;;8.92;84.69;98454.28;1719850;82;21022;-67
2021/09/24 02:18:54;;;;;;;9.80;8.33;;;;;;;8.92;84.77;98452.92;1736334;82;21561;-68
2021/09/24 02:21:20;;;;;;;11.70;7.97;;;;;;;8.93;84.80;98445.02;1747061;82;21019;-67
2021/09/24 02:23:48;;;;;;;10.95;7.67;;;;;;;8.95;84.82;98441.48;1747353;82;20994;-68
2021/09/24 02:26:14;;;;;;;9.28;7.25;;;;;;;8.97;84.86;98440.63;1741127;82;21502;-67
2021/09/24 02:28:42;;;;;;;12.13;7.92;;;;;;;8.98;84.89;98434.10;1747056;82;21044;-67
2021/09/24 02:31:10;;;;;;;10.00;8.25;;;;;;;9.00;84.89;98426.46;1747403;82;21031;-68
2021/09/24 02:33:40;;;;;;;10.10;8.03;;;;;;;8.99;84.85;98427.03;1735157;82;21417;-68
2021/09/24 02:36:08;;;;;;;11.20;7.78;;;;;;;9.02;84.94;98424.83;1719786;82;21046;-67
2021/09/24 02:38:36;;;;;;;11.12;8.13;;;;;;;9.01;85.00;98424.02;1720480;82;21015;-67
2021/09/24 02:41:03;;;;;;;11.40;8.33;;;;;;;9.03;85.10;98415.05;1731714;82;21055;-67
2021/09/24 02:43:32;;;;;;;11.08;8.75;;;;;;;9.04;85.15;98409.04;1741642;82;21051;-68
2021/09/24 02:46:00;;;;;;;9.45;7.37;;;;;;;9.05;85.17;98406.05;1718338;82;21054;-67
2021/09/24 02:48:26;;;;;;;10.15;8.38;;;;;;;9.06;85.20;98402.78;1719654;82;21599;-68
2021/09/24 02:50:54;;;;;;;10.58;7.92;;;;;;;9.09;85.21;98400.28;1717404;83;21588;-67
2021/09/24 02:53:20;;;;;;;9.30;8.08;;;;;;;9.10;85.25;98388.88;1717507;82;21038;-68
2021/09/24 02:55:47;;;;;;;11.12;8.00;;;;;;;9.11;85.28;98379.06;1682783;85;21708;-67
2021/09/24 02:58:15;;;;;;;10.35;8.28;;;;;;;9.13;85.22;98380.14;1680730;85;21039;-67
2021/09/24 03:00:41;;;;;;;12.18;8.78;;;;;;;9.13;85.23;98376.88;1666502;85;21130;-68
2021/09/24 03:03:07;;;;;;;10.30;7.83;;;;;;;9.15;85.26;98375.21;1673612;85;21024;-68
2021/09/24 03:05:35;;;;;;;;;;;;;;;9.16;85.29;98369.50;1691385;84;21086;-67
2021/09/24 03:08:04;;;;;;;9.45;7.58;;;;;;;9.16;85.26;98357.28;1679349;84;20137;-67
2021/09/24 03:10:32;;;;;;;10.50;8.05;;;;;;;9.11;85.45;98362.78;1682751;83;21543;-67
2021/09/24 03:13:00;;;;;;;11.53;8.28;;;;;;;9.12;85.51;98352.73;1701725;84;21047;-68
2021/09/24 03:15:26;;;;;;;10.72;8.38;;;;;;;9.14;85.50;98353.27;1695854;84;21074;-67
2021/09/24 03:17:53;;;;;;;11.53;8.38;;;;;;;9.15;85.47;98348.88;1675661;84;21530;-68
2021/09/24 03:20:20;;;;;;;10.32;8.30;;;;;;;9.15;85.47;98343.99;1673389;86;21154;-67
2021/09/24 03:22:48;;;;;;;12.13;8.23;;;;;;;9.14;85.53;98337.75;1674336;84;21657;-68
2021/09/24 03:25:14;;;;;;;10.38;8.03;;;;;;;9.15;85.47;98329.06;1673535;86;21090;-68
2021/09/24 03:27:42;;;;;;;10.93;7.90;;;;;;;9.16;85.50;98330.68;1685770;84;21083;-68
2021/09/24 03:30:10;;;;;;;;;;;;;;;9.18;85.50;98321.12;1678713;84;21063;-67
2021/09/24 03:32:36;;;;;;;11.73;8.03;;;;;;;9.20;85.49;98312.70;1673657;84;20160;-68
2021/09/24 03:35:06;;;;;;;8.65;7.50;;;;;;;9.14;85.58;98305.17;1674878;84;21090;-68
2021/09/24 03:37:34;;;;;;;11.30;8.08;;;;;;;9.14;85.66;98299.74;1672033;83;21042;-68
2021/09/24 03:40:03;;;;;;;10.23;8.05;;;;;;;9.15;85.66;98297.84;1669213;83;21420;-67
2021/09/24 03:42:29;;;;;;;11.33;7.60;;;;;;;9.15;85.69;98289.14;1716981;83;21006;-66
2021/09/24 03:44:55;;;;;;;8.58;7.58;;;;;;;9.16;85.75;98279.09;1695851;84;21521;-67
2021/09/24 03:47:23;;;;;;;11.03;7.80;;;;;;;9.20;85.71;98282.83;1687561;84;21540;-67
2021/09/24 03:49:50;;;;;;;12.30;8.40;;;;;;;9.20;85.73;98273.33;1717355;83;21089;-68
2021/09/24 03:52:17;;;;;;;9.28;7.53;;;;;;;9.21;85.76;98261.38;1692919;84;21528;-68
2021/09/24 03:54:43;;;;;;;11.95;7.90;;;;;;;9.24;85.81;98264.84;1702431;83;21003;-67
2021/09/24 03:57:09;;;;;;;11.00;7.55;;;;;;;9.26;85.79;98259.91;1722607;83;21018;-67
2021/09/24 03:59:36;;;;;;;9.98;7.58;;;;;;;9.26;85.76;98252.58;1701581;83;21132;-68
2021/09/24 04:02:03;;;;;;;10.38;7.75;;;;;;;9.27;85.78;98241.98;1701128;83;21022;-68
2021/09/24 04:04:30;;;;;;;9.38;7.67;;;;;;;9.28;85.80;98234.06;1693065;84;21125;-68
2021/09/24 04:06:56;;;;;;;10.45;7.75;;;;;;;9.30;85.81;98229.70;1698766;83;21870;-68
2021/09/24 04:09:24;;;;;;;10.38;7.83;;;;;;;9.32;85.79;98222.05;1699791;83;21005;-67
2021/09/24 04:11:50;;;;;;;11.12;7.60;;;;;;;9.27;85.86;98212.11;1695990;84;21036;-68
2021/09/24 04:14:17;;;;;;;;;;;;;;;9.26;85.95;98198.81;1699099;84;21546;-67
2021/09/24 04:16:45;;;;;;;10.25;7.00;;;;;;;9.27;85.90;98190.93;1704621;83;20180;-68
2021/09/24 04:19:13;;;;;;;9.70;6.75;;;;;;;9.24;85.99;98190.17;1713466;83;21519;-67
2021/09/24 04:21:41;;;;;;;9.15;7.42;;;;;;;9.25;86.01;98183.62;1674030;84;21027;-67
2021/09/24 04:24:09;;;;;;;10.38;7.72;;;;;;;9.25;86.00;98178.19;1695392;84;21071;-67
2021/09/24 04:26:35;;;;;;;9.33;6.90;;;;;;;9.25;86.01;98188.50;1696095;84;21519;-68
2021/09/24 04:29:05;;;;;;;8.78;6.50;;;;;;;9.27;86.04;98180.88;1707376;83;21057;-67
2021/09/24 04:31:34;;;;;;;10.78;7.10;;;;;;;9.30;86.04;98176.20;1706200;83;21003;-68
2021/09/24 04:34:00;;;;;;;9.90;7.22;;;;;;;9.30;86.00;98169.41;1675102;84;21516;-68
2021/09/24 04:36:28;;;;;;;9.75;7.05;;;;;;;9.26;86.13;98152.11;1724830;83;21145;-67
2021/09/24 04:38:57;;;;;;;9.05;6.35;;;;;;;9.29;86.19;98150.69;1678153;84;20994;-67
2021/09/24 04:41:23;;;;;;;8.70;6.97;;;;;;;9.32;86.14;98155.52;1695208;84;21541;-68
2021/09/24 04:43:50;;;;;;;9.63;6.20;;;;;;;9.33;86.15;98145.72;1715197;83;21068;-69
2021/09/24 04:46:17;;;;;;;8.25;6.22;;;;;;;9.35;86.13;98140.00;1684393;84;21162;-68
2021/09/24 04:48:43;;;;;;;8.18;6.10;;;;;;;9.38;86.16;98139.39;1719532;83;21358;-69
2021/09/24 04:51:12;;;;;;;7.85;6.33;;;;;;;9.40;86.15;98139.34;1711601;83;21051;-68
2021/09/24 04:53:38;;;;;;;9.20;5.87;;;;;;;9.37;86.19;98125.01;1720508;83;21050;-68
2021/09/24 04:56:05;;;;;;;10.72;6.70;;;;;;;9.37;86.19;98122.30;1714719;83;21100;-68
2021/09/24 04:58:33;;;;;;;10.50;6.10;;;;;;;9.37;86.24;98107.91;1699753;83;21016;-68
2021/09/24 05:00:59;;;;;;;8.38;6.25;;;;;;;9.39;86.23;98106.48;1681881;84;21089;-68
2021/09/24 05:03:25;;;;;;;8.43;6.30;;;;;;;9.39;86.19;98096.98;1739321;82;21043;-69
2021/09/24 05:05:52;;;;;;;9.73;6.62;;;;;;;9.41;86.18;98091.26;1739125;82;21040;-68
2021/09/24 05:08:20;;;;;;;6.75;5.58;;;;;;;9.40;86.23;98091.80;1739185;82;21087;-69
2021/09/24 05:10:48;;;;;;;7.97;5.28;;;;;;;9.41;86.25;98087.19;1712292;82;21549;-68
2021/09/24 05:13:16;;;;;;;8.63;5.50;;;;;;;9.40;86.30;98066.01;1709749;83;21008;-68
2021/09/24 05:15:43;;;;;;;;;;;;;;;9.42;86.38;98068.43;1712274;84;21142;-69
2021/09/24 05:18:11;;;;;;;;;;;;;;;9.44;86.45;98079.23;1720954;82;20119;-68
2021/09/24 05:20:39;;;;;;;6.85;5.37;;;;;;;9.41;86.61;98060.84;1738938;81;20505;-68
2021/09/24 05:23:05;;;;;;;9.20;6.03;;;;;;;9.41;86.73;98049.16;1739077;82;21015;-68
2021/09/24 05:25:33;;;;;;;10.82;5.78;;;;;;;9.44;86.67;98033.61;1739078;82;21091;-67
2021/09/24 05:28:00;;;;;;;7.05;5.62;;;;;;;9.44;86.68;98040.40;1738977;82;21044;-67
2021/09/24 05:30:26;;;;;;;7.42;5.50;;;;;;;9.44;86.67;98039.85;1734654;82;21024;-68
2021/09/24 05:32:55;;;;;;;7.72;6.03;;;;;;;9.47;86.71;98040.59;1695470;83;21538;-68
2021/09/24 05:35:22;;;;;;;8.03;5.90;;;;;;;9.51;86.67;98036.72;1709830;83;21079;-67
2021/09/24 05:37:49;;;;;;;8.60;6.28;;;;;;;9.55;86.69;98039.63;1722973;82;20996;-68
2021/09/24 05:40:15;;;;;;;6.80;5.00;;;;;;;9.57;86.72;98041.47;1731116;82;21024;-68
2021/09/24 05:42:42;;;;;;;8.18;5.85;;;;;;;9.59;86.70;98034.64;1738281;82;21012;-68
2021/09/24 05:45:11;;;;;;;6.55;5.28;;;;;;;9.61;86.71;98035.13;1732600;82;21083;-68
2021/09/24 05:47:39;;;;;;;7.10;4.97;;;;;;;9.64;86.67;98020.11;1712237;82;21384;-69
2021/09/24 05:50:12;;;;;;;7.30;5.15;;;;;;;9.65;86.70;98012.22;1709509;83;21118;-69
2021/09/24 05:52:48;;;;;;;7.95;5.50;;;;;;;9.65;86.66;98021.17;1711895;82;20948;-68
2021/09/24 05:55:18;;;;;;;7.45;5.95;;;;;;;9.67;86.63;98003.22;1710040;82;21062;-71
2021/09/24 05:57:46;;;;;;;7.47;5.55;;;;;;;9.68;86.60;98011.60;1715572;82;21035;-67
2021/09/24 06:00:15;;;;;;;8.95;5.80;;;;;;;9.67;86.54;97993.72;1734020;81;21059;-68
2021/09/24 06:02:43;;;;;;;7.42;5.33;;;;;;;9.68;86.57;97992.58;1747480;82;21509;-68
2021/09/24 06:05:10;;;;;;;6.85;5.20;;;;;;;9.68;86.56;98002.90;1730517;82;21557;-67
2021/09/24 06:07:37;;;;;;;6.85;5.30;;;;;;;9.70;86.57;97994.45;1718089;82;20995;-68
2021/09/24 06:10:04;;;;;;;;;;;;;;;9.71;86.54;97983.81;1658573;85;21594;-68
2021/09/24 06:12:31;;;;;;;7.10;5.07;;;;;;;9.72;86.59;97993.03;1671324;86;20149;-68
2021/09/24 06:14:57;;;;;;;;;;;;;;;9.69;86.71;97989.57;1679270;85;21530;-68
2021/09/24 06:17:24;;;;;;;7.42;5.40;;;;;;;9.70;86.73;97984.39;1681375;84;20134;-68
2021/09/24 06:19:52;;;;;;;6.60;5.10;;;;;;;9.65;86.92;97981.78;1717316;83;21103;-67
2021/09/24 06:22:21;;;;;;;7.05;4.67;;;;;;;9.67;87.04;97975.47;1717703;83;21498;-68
2021/09/24 06:24:47;;;;;;;6.40;4.95;;;;;;;9.72;87.04;97976.72;1724138;82;21082;-68
2021/09/24 06:27:17;;;;;;;6.05;4.97;;;;;;;9.76;87.01;97968.76;1735928;82;21529;-68
2021/09/24 06:29:48;;;;;;;6.17;4.47;;;;;;;9.81;86.96;97971.36;1722624;82;21054;-67
2021/09/24 06:32:15;;;;;;;6.00;4.22;;;;;;;9.81;86.92;97991.75;1736385;82;20983;-67
2021/09/24 06:34:43;;;;;;;6.37;5.12;;;;;;;9.84;86.94;97981.61;1747086;82;21071;-67
2021/09/24 06:37:10;;;;;;;7.70;5.12;;;;;;;9.87;86.98;97972.84;1717825;83;21058;-67
2021/09/24 06:39:36;;;;;;;;;;;;;;;9.90;86.95;97968.14;1720139;83;21000;-67
2021/09/24 06:42:05;;;;;;;6.45;4.62;;;;;;;9.93;86.89;97969.67;1717721;83;20117;-67
2021/09/24 06:44:31;;;;;;;7.62;4.85;;;;;;;9.90;87.01;97974.37;1689701;83;21023;-67
2021/09/24 06:46:58;;;;;;;7.37;5.17;;;;;;;9.96;87.08;97962.26;1720117;82;21003;-66
2021/09/24 06:49:25;;;;;;;8.30;5.17;;;;;;;10.02;87.07;97964.86;1676222;85;21209;-68
2021/09/24 06:51:52;;;;;;;;;;;;;;;10.04;87.00;97963.42;1685724;85;21635;-68
2021/09/24 06:54:19;;;;;;;7.65;5.37;;;;;;;10.07;86.98;97951.13;1683410;84;20112;-67
2021/09/24 06:56:46;;;;;;;7.22;5.30;;;;;;;10.07;87.00;97956.00;1675632;84;21112;-68
2021/09/24 06:59:14;;;;;;;6.97;5.15;;;;;;;10.10;86.93;97962.73;1683347;84;21522;-67
2021/09/24 07:01:44;;;;;;;6.67;5.37;;;;;;;10.13;86.86;97959.41;1690128;84;21066;-67
2021/09/24 07:04:11;;;;;;;7.53;5.40;;;;;;;10.15;86.77;97959.37;1686497;84;21039;-67
2021/09/24 07:06:38;;;;;;;6.85;5.10;;;;;;;10.15;86.65;97953.94;1719729;82;21094;-68
2021/09/24 07:09:05;;;;;;;6.35;5.20;;;;;;;10.17;86.60;97951.69;1717206;83;21486;-68
2021/09/24 07:11:33;;;;;;;7.50;5.15;;;;;;;10.19;86.51;97949.48;1729506;82;21055;-68
2021/09/24 07:14:08;;;;;;;8.08;5.17;;;;;;;10.18;86.48;97942.42;1723807;82;21648;-69
2021/09/24 07:16:32;;;;;;;6.60;4.90;;;;;;;10.20;86.52;97942.91;1735615;81;21027;-68
2021/09/24 07:18:58;;;;;;;7.58;5.25;;;;;;;10.22;86.55;97936.61;1734416;82;21056;-69
2021/09/24 07:21:26;;;;;;;6.45;5.42;;;;;;;10.25;86.54;97948.77;1717341;83;21485;-69
2021/09/24 07:23:53;;;;;;;7.25;5.60;;;;;;;10.27;86.51;97933.73;1734252;82;21030;-68
2021/09/24 07:26:19;;;;;;;7.12;5.25;;;;;;;10.28;86.51;97933.99;1718028;82;21558;-68
2021/09/24 07:28:45;;;;;;;;;;;;;;;10.28;86.48;97933.99;1714446;84;21038;-68
2021/09/24 07:31:12;;;;;;;6.78;5.72;;;;;;;10.29;86.48;97933.44;1733618;82;20113;-68
2021/09/24 07:33:38;;;;;;;6.85;5.37;;;;;;;10.24;86.61;97934.38;1722118;82;20983;-68
2021/09/24 07:36:06;;;;;;;7.12;5.30;;;;;;;10.27;86.80;97939.18;1741751;82;21594;-68
2021/09/24 07:38:32;;;;;;;7.75;5.35;;;;;;;10.33;86.84;97931.70;1747924;82;20995;-67
2021/09/24 07:41:00;;;;;;;7.33;5.45;;;;;;;10.40;86.88;97928.78;1741034;82;21027;-68
2021/09/24 07:43:27;;;;;;;6.08;5.10;;;;;;;10.52;87.02;97930.11;1732048;82;20940;-68
2021/09/24 07:45:56;;;;;;;6.03;5.20;;;;;;;10.63;87.04;97928.13;1717978;83;21055;-68
2021/09/24 07:48:23;;;;;;;8.35;5.25;;;;;;;10.75;87.12;97918.80;1722939;82;20969;-68
2021/09/24 07:50:49;;;;;;;6.00;4.28;;;;;;;10.92;87.25;97925.64;1733598;82;21003;-68
2021/09/24 07:53:15;;;;;;;;;;;;;;;11.12;87.35;97916.64;1748982;82;20951;-68
2021/09/24 07:55:42;;;;;;;6.55;5.08;;;;;;;11.29;87.32;97917.45;1738366;81;20526;-67
2021/09/24 07:58:08;;;;;;;7.58;4.90;;;;;;;11.32;86.98;97912.72;1717685;83;21342;-68
2021/09/24 08:00:36;;;;;;;6.28;4.30;;;;;;;11.33;86.81;97926.59;1717981;83;21094;-68
2021/09/24 08:03:03;;;;;;;5.67;4.25;;;;;;;11.40;86.55;97916.02;1709868;83;21633;-67
2021/09/24 08:05:32;;;;;;;5.58;4.47;;;;;;;11.46;86.37;97922.89;1709779;83;21027;-67
2021/09/24 08:08:00;;;;;;;7.03;4.55;;;;;;;11.53;86.09;97918.32;1709735;84;21040;-67
2021/09/24 08:10:28;;;;;;;5.58;4.15;;;;;;;11.56;85.67;97916.87;1709631;83;21538;-67
2021/09/24 08:12:55;;;;;;;8.18;4.40;;;;;;;11.58;85.49;97918.73;1709716;84;21613;-67
2021/09/24 08:15:24;;;;;;;5.72;4.30;;;;;;;11.68;85.62;97917.03;1709812;83;21103;-68
2021/09/24 08:17:52;;;;;;;5.50;4.25;;;;;;;11.82;85.49;97914.39;1710014;84;21515;-68
2021/09/24 08:20:20;;;;;;;5.33;4.03;;;;;;;11.96;85.42;97902.73;1709637;83;21598;-68
2021/09/24 08:22:47;;;;;;;5.60;3.70;;;;;;;12.08;85.00;97920.36;1709645;83;21099;-68
2021/09/24 08:25:16;;;;;;;5.03;3.70;;;;;;;12.21;84.86;97919.34;1710022;83;21446;-68
2021/09/24 08:27:42;;;;;;;6.70;4.03;;;;;;;12.33;84.62;97920.81;1663751;86;21066;-68
2021/09/24 08:30:10;;;;;;;;;;;;;;;12.45;84.41;97929.13;1712469;84;21075;-68
2021/09/24 08:32:38;;;;;;;4.45;3.47;;;;;;;12.52;84.11;97928.61;1709664;84;20140;-67
2021/09/24 08:35:07;;;;;;;7.42;3.85;;;;;;;12.58;84.09;97920.47;1710006;83;21003;-68
2021/09/24 08:37:33;;;;;;;5.75;4.25;;;;;;;12.66;83.82;97910.88;1663827;85;21645;-67
2021/09/24 08:40:00;;;;;;;5.58;3.52;;;;;;;12.70;83.51;97911.83;1709932;84;21067;-68
2021/09/24 08:42:28;;;;;;;4.60;3.30;;;;;;;12.75;83.38;97914.95;1709694;83;20971;-68
2021/09/24 08:44:54;;;;;;;;;;;;;;;12.85;83.05;97917.30;1712336;84;21531;-67
2021/09/24 08:47:20;;;;;;;4.45;2.90;;;;;;;12.96;82.69;97919.32;1709875;84;20102;-68
2021/09/24 08:49:48;;;;;;;4.30;2.65;;;;;;;13.01;82.25;97929.80;1709904;83;21530;-68
2021/09/24 08:52:14;;;;;;;4.87;3.10;;;;;;;13.07;81.93;97926.56;1709755;83;21091;-68
2021/09/24 08:54:41;;;;;;;4.17;2.75;;;;;;;13.14;81.57;97916.50;1709779;83;21043;-67
2021/09/24 08:57:11;;;;;;;;;;;;;;;13.14;81.24;97911.84;1712243;83;22447;-67
2021/09/24 08:59:38;;;;;;;4.80;2.30;;;;;;;13.25;81.15;97910.29;1709691;84;20140;-68
2021/09/24 09:02:08;;;;;;;5.97;2.67;;;;;;;13.59;81.43;97905.13;1709683;83;21050;-67
2021/09/24 09:04:43;;;;;;;4.25;2.98;;;;;;;14.31;81.05;97904.52;1709852;84;21585;-68
2021/09/24 09:07:12;;;;;;;4.95;2.60;;;;;;;14.94;79.44;97902.30;1709799;84;21664;-67
2021/09/24 09:09:44;;;;;;;4.00;2.20;;;;;;;15.34;77.44;97907.23;1709774;84;21063;-67
2021/09/24 09:12:20;;;;;;;5.58;2.50;;;;;;;15.45;75.45;97903.43;1709644;84;21103;-67
2021/09/24 09:15:11;;;;;;;3.55;2.40;;;;;;;15.33;74.03;97907.02;1709970;83;21095;-67
2021/09/24 09:17:43;;;;;;;3.62;2.17;;;;;;;15.22;73.31;97905.91;1663870;86;21143;-68
2021/09/24 09:20:23;;;;;;;4.35;2.30;;;;;;;15.13;72.82;97909.33;1709778;84;21546;-67
2021/09/24 09:23:05;;;;;;;5.12;2.70;;;;;;;15.06;72.88;97914.59;1709936;83;21558;-67
2021/09/24 09:25:43;;;;;;;6.00;2.60;;;;;;;15.15;72.42;97905.69;1663675;86;21067;-68
2021/09/24 09:28:26;;;;;;;5.53;2.62;;;;;;;15.46;71.47;97896.81;1709888;84;21478;-66
2021/09/24 09:30:53;;;;;;;5.62;3.12;;;;;;;15.73;70.13;97901.53;1709442;83;21079;-66
2021/09/24 09:33:20;;;;;;;10.88;5.87;;;;;;;15.74;68.67;97915.48;1710127;83;21478;-66
2021/09/24 09:35:54;;;;;;;8.83;4.65;;;;;;;15.53;67.38;97915.44;1709566;84;21412;-65
2021/09/24 09:38:33;;;;;;;4.72;2.20;;;;;;;15.24;66.63;97921.42;1709957;83;21487;-67
2021/09/24 09:41:10;;;;;;;5.28;1.50;;;;;;;14.87;65.08;97928.91;1709727;84;21019;-67
2021/09/24 09:43:47;;;;;;;3.92;1.80;;;;;;;14.51;65.19;97917.12;1664174;86;20960;-68
2021/09/24 09:46:20;;;;;;;5.72;2.05;;;;;;;14.26;65.64;97931.32;1709670;84;21060;-65
2021/09/24 09:49:08;;;;;;;2.98;1.40;;;;;;;14.13;66.46;97932.44;1709945;83;21504;-65
2021/09/24 09:51:37;;;;;;;6.75;1.80;;;;;;;14.21;67.53;97935.63;1709746;84;21629;-67
2021/09/24 09:54:05;;;;;;;4.78;1.45;;;;;;;14.40;67.83;97931.27;1710154;83;21007;-68
2021/09/24 09:56:37;;;;;;;4.55;1.60;;;;;;;14.56;67.34;97932.75;1709702;83;21061;-67
2021/09/24 09:59:29;;;;;;;5.12;1.10;;;;;;;14.68;66.34;97935.52;1709859;83;21074;-68
2021/09/24 10:02:21;;;;;;;4.90;2.25;;;;;;;14.73;64.45;97929.82;1710934;83;21047;-65
2021/09/24 10:04:53;;;;;;;5.42;2.05;;;;;;;14.70;62.21;97938.70;1702413;83;21102;-65
2021/09/24 10:07:29;;;;;;;4.45;0.82;;;;;;;14.61;60.72;97946.80;1717469;83;21071;-65
2021/09/24 10:10:16;;;;;;;4.17;0.90;;;;;;;14.60;61.13;97950.67;1717774;83;21624;-65
2021/09/24 10:12:45;;;;;;;4.30;1.20;;;;;;;14.64;61.73;97926.94;1717388;83;21058;-65
2021/09/24 10:15:14;;;;;;;4.70;1.10;;;;;;;14.73;60.88;97939.41;1717604;83;21074;-68
2021/09/24 10:17:42;;;;;;;7.55;1.30;;;;;;;14.78;60.30;97932.31;1717610;83;21074;-65
2021/09/24 10:20:09;;;;;;;4.92;1.32;;;;;;;14.74;59.12;97942.35;1717451;83;21142;-66
2021/09/24 10:22:36;;;;;;;5.80;1.02;;;;;;;14.73;59.65;97946.81;1717465;83;21114;-67
2021/09/24 10:25:03;;;;;;;5.33;1.50;;;;;;;14.75;59.54;97950.00;1717960;83;21553;-66
2021/09/24 10:27:36;;;;;;;4.95;1.15;;;;;;;14.71;60.21;97947.15;1717354;83;21074;-66
2021/09/24 10:30:11;;;;;;;5.00;1.27;;;;;;;14.65;60.02;97940.30;1717643;83;21126;-66
2021/09/24 10:32:38;;;;;;;7.55;1.37;;;;;;;14.53;60.21;97944.39;1717434;83;21065;-67
2021/09/24 10:35:09;;;;;;;5.72;1.27;;;;;;;14.48;60.47;97949.30;1685110;83;21078;-66
2021/09/24 10:37:41;;;;;;;4.90;1.20;;;;;;;14.42;60.26;97954.18;1717281;83;21063;-67
2021/09/24 10:40:26;;;;;;;8.80;1.40;;;;;;;14.27;60.62;97955.63;1717819;83;21550;-66
2021/09/24 10:42:58;;;;;;;3.97;1.30;;;;;;;14.14;61.04;97952.60;1717852;83;21059;-67
2021/09/24 10:45:40;;;;;;;4.47;1.02;;;;;;;14.03;61.64;97954.16;1717804;83;21522;-65
2021/09/24 10:48:23;;;;;;;5.42;1.50;;;;;;;14.05;61.60;97956.01;1717570;83;21076;-66
2021/09/24 10:51:02;;;;;;;5.80;1.22;;;;;;;14.13;62.14;97953.77;1717731;83;21027;-66
2021/09/24 10:53:39;;;;;;;5.20;1.32;;;;;;;14.27;62.23;97954.82;1715553;83;21036;-66
2021/09/24 10:56:11;;;;;;;4.83;1.42;;;;;;;14.32;62.80;97951.28;1715797;83;21570;-66
2021/09/24 10:58:42;;;;;;;5.08;1.27;;;;;;;14.42;63.83;97967.87;1717787;83;21007;-66
2021/09/24 11:01:15;;;;;;;7.42;1.60;;;;;;;14.56;63.75;97958.77;1717720;83;21047;-66
2021/09/24 11:03:57;;;;;;;5.58;1.50;;;;;;;14.73;63.61;97961.88;1707283;83;21040;-66
2021/09/24 11:06:41;;;;;;;5.62;1.22;;;;;;;14.84;62.65;97958.33;1709840;84;21586;-66
2021/09/24 11:09:12;;;;;;;6.17;0.90;;;;;;;14.85;62.15;97964.61;1663793;86;21375;-66
2021/09/24 11:11:44;;;;;;;4.22;1.22;;;;;;;14.82;62.65;97970.20;1709676;83;21518;-67
2021/09/24 11:16:48;;;;;;;4.45;1.32;;;;;;;14.87;63.52;97965.89;1801584;79;22940;-67
2021/09/24 11:19:32;;;;;;;5.60;1.30;;;;;;;14.79;63.75;97964.05;1761241;80;21664;-67
2021/09/24 11:22:12;;;;;;;3.52;1.10;;;;;;;14.87;64.46;97961.78;1761604;81;21059;-67
2021/09/24 11:24:44;;;;;;;5.67;1.45;;;;;;;15.12;64.43;97957.09;1761383;81;21039;-67
2021/09/24 11:27:18;;;;;;;2.47;1.17;;;;;;;15.36;63.14;97954.88;1761544;81;21542;-67
2021/09/24 11:30:08;;;;;;;5.60;1.60;;;;;;;15.47;63.34;97949.71;1762258;81;21078;-67
2021/09/24 11:32:43;;;;;;;3.02;0.80;;;;;;;15.55;62.28;97964.70;1761502;81;20991;-67
2021/09/24 11:35:12;;;;;;;3.98;1.20;;;;;;;15.42;61.10;97965.25;1761189;81;21593;-68
2021/09/24 11:37:40;;;;;;;5.28;1.02;;;;;;;15.20;60.76;97966.30;1761397;81;21534;-68
2021/09/24 11:40:12;;;;;;;3.42;1.10;;;;;;;14.97;60.79;97966.56;1761287;81;21573;-67
2021/09/24 11:42:50;;;;;;;3.15;0.78;;;;;;;14.80;61.35;97974.44;1760955;81;21035;-67
2021/09/24 11:45:23;;;;;;;4.95;1.25;;;;;;;14.67;61.42;97970.88;1761350;81;21083;-67
2021/09/24 11:48:08;;;;;;;5.22;1.30;;;;;;;14.50;61.86;97994.36;1761366;81;21050;-67
2021/09/24 11:50:33;;;;;;;4.90;1.35;;;;;;;14.36;63.46;98008.36;1758288;81;21062;-69